createdAt,value
2019-04-06T00:01:35.748Z,13.83
2019-04-06T00:04:05.828Z,15.47
2019-04-06T00:06:35.960Z,15.30
2019-04-06T00:09:07.643Z,15.93
2019-04-06T00:11:38.716Z,14.43
2019-04-06T00:14:09.130Z,15.30
2019-04-06T00:16:39.470Z,14.67
2019-04-06T00:19:09.950Z,15.23
2019-04-06T00:21:41.299Z,15.03
2019-04-06T00:24:11.427Z,14.53
2019-04-06T00:26:42.428Z,13.73
2019-04-06T00:29:13.044Z,15.70
2019-04-06T00:32:14.682Z,15.83
2019-04-06T00:34:44.850Z,15.03
2019-04-06T00:37:15.260Z,14.27
2019-04-06T00:39:45.353Z,14.23
2019-04-06T00:42:15.451Z,13.77
2019-04-06T00:44:45.556Z,14.10
2019-04-06T00:47:18.353Z,14.67
2019-04-06T00:49:48.502Z,14.83
2019-04-06T00:52:18.592Z,14.67
2019-04-06T00:54:48.886Z,14.50
2019-04-06T00:57:19.347Z,14.17
2019-04-06T00:59:50.386Z,13.73
2019-04-06T01:02:20.694Z,14.27
2019-04-06T01:04:50.855Z,14.60
2019-04-06T01:07:23.157Z,14.00
2019-04-06T01:09:53.160Z,13.33
2019-04-06T01:12:23.245Z,14.70
2019-04-06T01:14:53.375Z,15.43
2019-04-06T01:17:23.876Z,15.10
2019-04-06T01:19:54.037Z,14.63
2019-04-06T01:22:24.438Z,13.97
2019-04-06T01:24:54.635Z,15.90
2019-04-06T01:27:25.640Z,13.93
2019-04-06T01:29:55.741Z,15.17
2019-04-06T01:32:25.946Z,16.20
2019-04-06T01:34:55.994Z,15.90
2019-04-06T01:37:26.380Z,16.27
2019-04-06T01:39:56.986Z,16.87
2019-04-06T01:42:27.077Z,17.23
2019-04-06T01:44:57.217Z,17.20
2019-04-06T01:47:28.237Z,14.97
2019-04-06T01:49:58.378Z,15.17
2019-04-06T01:52:28.484Z,14.90
2019-04-06T01:54:59.295Z,14.50
2019-04-06T01:57:29.911Z,15.03
2019-04-06T02:00:00.007Z,14.83
2019-04-06T02:02:32.434Z,15.10
2019-04-06T02:05:03.636Z,14.40
2019-04-06T02:07:33.736Z,15.83
2019-04-06T02:10:04.179Z,15.27
2019-04-06T02:12:34.438Z,14.73
2019-04-06T02:15:04.821Z,14.73
2019-04-06T02:17:34.888Z,15.63
2019-04-06T02:20:05.253Z,15.30
2019-04-06T02:22:36.266Z,14.83
2019-04-06T02:25:07.275Z,14.73
2019-04-06T02:27:37.516Z,14.70
2019-04-06T02:30:30.366Z,15.53
2019-04-06T02:33:09.478Z,14.70
2019-04-06T02:35:48.025Z,14.83
2019-04-06T02:38:43.621Z,14.73
2019-04-06T02:41:19.608Z,14.80
2019-04-06T02:43:49.693Z,14.23
2019-04-06T02:46:19.780Z,15.40
2019-04-06T02:48:51.343Z,15.97
2019-04-06T02:51:21.440Z,14.83
2019-04-06T02:53:51.655Z,15.40
2019-04-06T02:56:22.639Z,15.73
2019-04-06T02:58:52.754Z,15.20
2019-04-06T03:01:22.921Z,14.73
2019-04-06T03:03:53.155Z,15.63
2019-04-06T03:06:23.318Z,18.53
2019-04-06T03:08:53.730Z,16.67
2019-04-06T03:11:24.271Z,15.53
2019-04-06T03:13:54.340Z,15.93
2019-04-06T03:16:24.473Z,15.03
2019-04-06T03:18:54.543Z,15.33
2019-04-06T03:21:24.791Z,17.60
2019-04-06T03:23:54.965Z,15.93
2019-04-06T03:26:25.124Z,16.97
2019-04-06T03:28:55.182Z,16.63
2019-04-06T03:31:27.718Z,16.57
2019-04-06T03:33:57.765Z,16.97
2019-04-06T03:36:28.020Z,16.80
2019-04-06T03:38:58.101Z,17.30
2019-04-06T03:41:28.692Z,19.23
2019-04-06T03:43:58.816Z,17.40
2019-04-06T03:46:29.777Z,19.83
2019-04-06T03:49:00.706Z,18.07
2019-04-06T03:51:31.248Z,19.27
2019-04-06T03:54:01.361Z,17.47
2019-04-06T03:56:31.380Z,18.13
2019-04-06T03:59:01.442Z,19.73
2019-04-06T04:01:31.630Z,20.17
2019-04-06T04:04:01.668Z,19.13
2019-04-06T04:06:31.990Z,20.23
2019-04-06T04:09:03.899Z,17.43
2019-04-06T04:11:34.529Z,16.57
2019-04-06T04:14:04.648Z,17.50
2019-04-06T04:16:34.798Z,18.70
2019-04-06T04:19:04.891Z,19.57
2019-04-06T04:21:35.052Z,18.17
2019-04-06T04:24:05.109Z,19.10
2019-04-06T04:26:35.489Z,20.23
2019-04-06T04:29:05.552Z,18.60
2019-04-06T04:31:35.886Z,19.10
2019-04-06T04:34:06.062Z,19.47
2019-04-06T04:36:36.211Z,18.67
2019-04-06T04:39:08.135Z,17.83
2019-04-06T04:41:40.131Z,19.67
2019-04-06T04:44:10.591Z,20.70
2019-04-06T04:46:40.737Z,21.83
2019-04-06T04:49:10.776Z,22.53
2019-04-06T04:51:41.615Z,23.37
2019-04-06T04:54:12.918Z,23.27
2019-04-06T04:56:43.004Z,24.40
2019-04-06T04:59:13.096Z,22.53
2019-04-06T05:01:43.090Z,23.27
2019-04-06T05:04:13.144Z,24.03
2019-04-06T05:06:44.598Z,23.93
2019-04-06T05:09:14.626Z,21.97
2019-04-06T05:11:44.785Z,23.30
2019-04-06T05:14:50.649Z,24.03
2019-04-06T05:17:21.016Z,24.23
2019-04-06T05:19:51.935Z,25.57
2019-04-06T05:22:21.980Z,24.57
2019-04-06T05:24:52.025Z,23.50
2019-04-06T05:27:22.194Z,23.87
2019-04-06T05:29:52.785Z,23.00
2019-04-06T05:32:22.939Z,22.13
2019-04-06T05:34:52.995Z,22.47
2019-04-06T05:37:23.045Z,21.53
2019-04-06T05:39:53.319Z,21.70
2019-04-06T05:42:23.376Z,21.87
2019-04-06T05:44:53.434Z,22.57
2019-04-06T05:47:23.493Z,23.77
2019-04-06T05:49:53.625Z,22.57
2019-04-06T05:52:23.845Z,22.60
2019-04-06T05:54:53.845Z,23.60
2019-04-06T05:57:23.895Z,24.17
2019-04-06T05:59:53.959Z,23.77
2019-04-06T06:02:24.040Z,25.27
2019-04-06T06:04:54.081Z,23.03
2019-04-06T06:07:24.195Z,23.93
2019-04-06T06:09:54.269Z,23.90
2019-04-06T06:12:24.365Z,22.73
2019-04-06T06:14:55.509Z,23.97
2019-04-06T06:17:26.706Z,25.33
2019-04-06T06:19:56.850Z,23.20
2019-04-06T06:22:27.016Z,22.57
2019-04-06T06:24:57.177Z,24.30
2019-04-06T06:27:27.303Z,23.97
2019-04-06T06:29:57.377Z,24.40
2019-04-06T06:32:27.483Z,23.97
2019-04-06T06:34:57.523Z,23.43
2019-04-06T06:37:27.564Z,23.80
2019-04-06T06:39:57.768Z,24.13
2019-04-06T06:42:27.815Z,22.90
2019-04-06T06:44:57.853Z,24.40
2019-04-06T06:47:27.957Z,21.77
2019-04-06T06:49:58.110Z,22.60
2019-04-06T06:52:28.162Z,23.77
2019-04-06T06:54:58.339Z,23.80
2019-04-06T06:57:28.352Z,23.30
2019-04-06T06:59:58.418Z,24.40
2019-04-06T07:02:28.599Z,22.33
2019-04-06T07:04:58.658Z,23.83
2019-04-06T07:07:28.911Z,22.60
2019-04-06T07:10:05.079Z,21.77
2019-04-06T07:12:31.050Z,22.33
2019-04-06T07:15:01.109Z,22.83
2019-04-06T07:17:31.206Z,22.93
2019-04-06T07:20:01.372Z,23.03
2019-04-06T07:22:31.419Z,23.17
2019-04-06T07:25:01.488Z,23.07
2019-04-06T07:27:31.642Z,23.00
2019-04-06T07:30:01.714Z,22.63
2019-04-06T07:32:31.767Z,23.40
2019-04-06T07:35:01.840Z,21.90
2019-04-06T07:37:31.935Z,21.77
2019-04-06T07:40:02.051Z,22.63
2019-04-06T07:42:32.368Z,21.63
2019-04-06T07:45:02.849Z,22.37
2019-04-06T07:47:32.947Z,20.07
2019-04-06T07:50:14.167Z,22.10
2019-04-06T07:52:45.399Z,22.37
2019-04-06T07:55:15.726Z,21.60
2019-04-06T07:57:46.395Z,21.43
2019-04-06T08:00:17.160Z,20.90
2019-04-06T08:02:48.916Z,20.80
2019-04-06T08:05:19.600Z,21.00
2019-04-06T08:07:52.219Z,20.70
2019-04-06T08:10:28.410Z,21.23
2019-04-06T08:12:58.596Z,21.20
2019-04-06T08:15:29.386Z,21.77
2019-04-06T08:18:00.611Z,22.10
2019-04-06T08:20:39.509Z,20.30
2019-04-06T08:23:10.368Z,21.53
2019-04-06T08:25:41.399Z,20.60
2019-04-06T08:28:15.032Z,20.33
2019-04-06T08:30:47.062Z,19.93
2019-04-06T08:33:17.978Z,20.77
2019-04-06T08:35:49.213Z,19.63
2019-04-06T08:38:20.597Z,20.10
2019-04-06T08:40:51.681Z,20.13
2019-04-06T08:43:22.744Z,20.83
2019-04-06T08:45:54.989Z,19.93
2019-04-06T08:48:28.877Z,18.57
2019-04-06T08:50:59.619Z,19.33
2019-04-06T08:53:30.693Z,19.50
2019-04-06T08:56:01.384Z,18.80
2019-04-06T08:58:32.073Z,20.73
2019-04-06T09:01:02.939Z,18.47
2019-04-06T09:03:33.669Z,18.50
2019-04-06T09:06:04.340Z,18.13
2019-04-06T09:08:40.127Z,18.10
2019-04-06T09:11:13.740Z,19.03
2019-04-06T09:13:45.266Z,18.47
2019-04-06T09:16:16.270Z,18.53
2019-04-06T09:18:49.343Z,18.17
2019-04-06T09:21:22.641Z,19.13
2019-04-06T09:23:58.237Z,17.50
2019-04-06T09:26:30.002Z,18.90
2019-04-06T09:29:00.803Z,17.50
2019-04-06T09:31:31.541Z,18.23
2019-04-06T09:34:03.420Z,18.80
2019-04-06T09:36:34.401Z,17.67
2019-04-06T09:39:06.555Z,17.53
2019-04-06T09:41:49.547Z,16.33
2019-04-06T09:44:31.370Z,17.67
2019-04-06T09:47:11.391Z,18.00
2019-04-06T09:49:55.443Z,17.87
2019-04-06T09:52:32.923Z,16.90
2019-04-06T09:55:20.616Z,17.57
2019-04-06T09:58:16.740Z,16.20
2019-04-06T10:01:12.590Z,17.33
2019-04-06T10:03:56.377Z,16.53
2019-04-06T10:06:39.291Z,14.83
2019-04-06T10:09:29.407Z,14.27
2019-04-06T10:12:29.487Z,15.53
2019-04-06T10:15:24.377Z,15.57
2019-04-06T10:18:17.934Z,15.47
2019-04-06T10:21:08.455Z,15.20
2019-04-06T10:23:57.619Z,14.50
2019-04-06T10:26:55.359Z,15.00
2019-04-06T10:29:49.195Z,14.00
2019-04-06T10:32:33.750Z,13.87
2019-04-06T10:35:31.192Z,14.60
2019-04-06T10:38:20.834Z,13.63
2019-04-06T10:41:11.287Z,13.50
2019-04-06T10:44:07.517Z,13.87
2019-04-06T10:47:06.508Z,14.27
2019-04-06T10:49:57.637Z,13.10
2019-04-06T10:52:42.681Z,12.27
2019-04-06T10:55:31.663Z,12.20
2019-04-06T10:58:19.846Z,13.23
2019-04-06T11:01:12.100Z,12.87
2019-04-06T11:04:15.540Z,12.67
2019-04-06T11:07:11.204Z,12.47
2019-04-06T11:09:56.770Z,12.80
2019-04-06T11:12:51.203Z,13.13
2019-04-06T11:15:39.676Z,12.70
2019-04-06T11:18:35.233Z,12.27
2019-04-06T11:21:23.978Z,12.43
2019-04-06T11:24:32.864Z,12.77
2019-04-06T11:27:26.937Z,12.03
2019-04-06T11:30:16.677Z,12.77
2019-04-06T11:33:05.221Z,12.00
2019-04-06T11:35:46.047Z,11.97
2019-04-06T11:38:51.018Z,11.50
2019-04-06T11:41:47.827Z,11.53
2019-04-06T11:44:43.715Z,12.33
2019-04-06T11:47:23.198Z,11.40
2019-04-06T11:50:03.861Z,11.30
2019-04-06T11:52:56.535Z,11.27
2019-04-06T11:55:55.231Z,12.07
2019-04-06T11:58:44.848Z,11.57
2019-04-06T12:01:43.776Z,11.67
2019-04-06T12:04:40.029Z,12.13
2019-04-06T12:07:20.760Z,12.07
2019-04-06T12:10:00.388Z,10.37
2019-04-06T12:13:05.136Z,11.60
2019-04-06T12:15:55.457Z,12.40
2019-04-06T12:18:54.367Z,13.07
2019-04-06T12:21:58.514Z,11.20
2019-04-06T12:24:58.832Z,10.83
2019-04-06T12:27:43.094Z,11.53
2019-04-06T12:30:51.571Z,11.57
2019-04-06T12:33:47.793Z,10.93
2019-04-06T12:36:29.239Z,11.97
2019-04-06T12:39:18.562Z,11.40
2019-04-06T12:42:20.118Z,11.60
2019-04-06T12:45:19.518Z,10.90
2019-04-06T12:48:12.055Z,10.30
2019-04-06T12:51:04.103Z,10.03
2019-04-06T12:53:53.720Z,10.30
2019-04-06T12:56:42.146Z,9.87
2019-04-06T12:59:23.599Z,9.37
2019-04-06T13:02:20.201Z,10.17
2019-04-06T13:05:24.915Z,10.17
2019-04-06T13:08:27.051Z,9.90
2019-04-06T13:11:20.005Z,9.37
2019-04-06T13:14:08.521Z,9.80
2019-04-06T13:16:56.634Z,9.27
2019-04-06T13:19:48.986Z,9.57
2019-04-06T13:22:39.593Z,10.63
2019-04-06T13:25:35.974Z,9.37
2019-04-06T13:28:24.828Z,9.20
2019-04-06T13:31:26.964Z,10.57
2019-04-06T13:34:26.299Z,9.63
2019-04-06T13:37:06.844Z,9.73
2019-04-06T13:40:01.516Z,8.67
2019-04-06T13:43:00.939Z,8.87
2019-04-06T13:45:59.533Z,9.50
2019-04-06T13:48:39.298Z,9.63
2019-04-06T13:51:27.797Z,10.20
2019-04-06T13:54:17.749Z,10.30
2019-04-06T13:57:16.772Z,8.43
2019-04-06T14:00:09.391Z,9.27
2019-04-06T14:03:03.624Z,9.50
2019-04-06T14:05:53.174Z,9.00
2019-04-06T14:08:43.290Z,9.50
2019-04-06T14:11:51.314Z,9.77
2019-04-06T14:14:41.263Z,9.57
2019-04-06T14:17:29.830Z,10.53
2019-04-06T14:20:21.386Z,8.43
2019-04-06T14:23:17.944Z,8.40
2019-04-06T14:26:20.059Z,8.20
2019-04-06T14:29:05.200Z,7.93
2019-04-06T14:31:47.742Z,8.30
2019-04-06T14:34:44.054Z,9.07
2019-04-06T14:37:28.408Z,8.63
2019-04-06T14:40:16.755Z,8.37
2019-04-06T14:43:05.513Z,9.17
2019-04-06T14:46:07.681Z,10.00
2019-04-06T14:49:17.242Z,9.03
2019-04-06T14:51:58.939Z,9.70
2019-04-06T14:54:48.479Z,11.50
2019-04-06T14:57:25.098Z,12.50
2019-04-06T15:00:14.626Z,9.13
2019-04-06T15:03:22.423Z,10.40
2019-04-06T15:06:10.505Z,9.17
2019-04-06T15:09:06.450Z,9.17
2019-04-06T15:12:03.964Z,8.33
2019-04-06T15:14:53.334Z,9.73
2019-04-06T15:17:30.182Z,8.87
2019-04-06T15:20:06.802Z,9.53
2019-04-06T15:22:59.279Z,9.07
2019-04-06T15:25:36.909Z,9.33
2019-04-06T15:28:33.192Z,9.50
2019-04-06T15:31:29.063Z,9.73
2019-04-06T15:34:14.255Z,9.20
2019-04-06T15:36:52.274Z,10.13
2019-04-06T15:39:40.675Z,9.40
2019-04-06T15:42:21.729Z,9.10
2019-04-06T15:45:11.416Z,8.67
2019-04-06T15:48:16.272Z,9.47
2019-04-06T15:50:58.695Z,9.00
2019-04-06T15:53:57.510Z,9.47
2019-04-06T15:56:41.350Z,10.13
2019-04-06T15:59:37.156Z,9.80
2019-04-06T16:02:26.945Z,9.93
2019-04-06T16:05:25.797Z,10.23
2019-04-06T16:08:11.176Z,9.47
2019-04-06T16:10:56.527Z,8.77
2019-04-06T16:13:55.676Z,9.50
2019-04-06T16:16:45.281Z,9.60
2019-04-06T16:19:43.918Z,10.10
2019-04-06T16:22:33.784Z,9.40
2019-04-06T16:25:32.660Z,9.50
2019-04-06T16:28:22.371Z,9.67
2019-04-06T16:31:03.080Z,10.53
2019-04-06T16:33:51.722Z,9.47
2019-04-06T16:36:44.414Z,10.10
2019-04-06T16:39:31.015Z,9.00
2019-04-06T16:42:20.679Z,8.87
2019-04-06T16:45:13.831Z,9.23
2019-04-06T16:48:06.487Z,10.43
2019-04-06T16:50:56.713Z,9.10
2019-04-06T16:53:55.617Z,10.47
2019-04-06T16:56:45.499Z,10.53
2019-04-06T16:59:23.959Z,10.80
2019-04-06T17:02:09.015Z,9.57
2019-04-06T17:04:54.687Z,9.60
2019-04-06T17:08:10.221Z,9.87
2019-04-06T17:10:42.592Z,9.83
2019-04-06T17:13:24.716Z,10.13
2019-04-06T17:16:09.664Z,10.43
2019-04-06T17:18:51.187Z,10.23
2019-04-06T17:21:41.181Z,12.07
2019-04-06T17:24:18.120Z,11.77
2019-04-06T17:27:06.449Z,14.50
2019-04-06T17:29:52.686Z,13.83
2019-04-06T17:32:46.020Z,12.53
2019-04-06T17:35:36.460Z,12.43
2019-04-06T17:38:23.130Z,13.13
2019-04-06T17:41:15.612Z,11.60
2019-04-06T17:44:02.303Z,11.47
2019-04-06T17:47:10.346Z,11.00
2019-04-06T17:50:11.058Z,11.27
2019-04-06T17:53:10.655Z,10.67
2019-04-06T17:56:00.475Z,10.93
2019-04-06T17:58:44.081Z,12.90
2019-04-06T18:01:41.118Z,14.77
2019-04-06T18:04:23.874Z,15.73
2019-04-06T18:07:22.423Z,17.23
2019-04-06T18:10:03.387Z,28.20
2019-04-06T18:12:42.249Z,23.20
2019-04-06T18:15:13.232Z,13.87
2019-04-06T18:17:43.920Z,12.53
2019-04-06T18:20:15.521Z,12.27
2019-04-06T18:22:46.746Z,13.23
2019-04-06T18:25:17.686Z,13.80
2019-04-06T18:27:48.432Z,13.53
2019-04-06T18:30:20.377Z,17.03
2019-04-06T18:33:10.443Z,16.03
2019-04-06T18:35:41.561Z,13.43
2019-04-06T18:38:31.113Z,12.83
2019-04-06T18:41:02.528Z,13.17
2019-04-06T18:43:33.313Z,14.30
2019-04-06T18:46:03.966Z,14.93
2019-04-06T18:48:34.787Z,16.00
2019-04-06T18:51:05.907Z,17.80
2019-04-06T18:53:37.074Z,16.80
2019-04-06T18:56:07.877Z,16.47
2019-04-06T18:58:39.931Z,15.33
2019-04-06T19:01:13.374Z,15.87
2019-04-06T19:03:45.156Z,14.93
2019-04-06T19:06:16.273Z,14.67
2019-04-06T19:08:47.494Z,15.43
2019-04-06T19:11:18.760Z,17.87
2019-04-06T19:13:50.212Z,17.33
2019-04-06T19:16:21.997Z,16.80
2019-04-06T19:18:52.666Z,26.97
2019-04-06T19:21:23.340Z,38.17
2019-04-06T19:23:56.208Z,44.47
2019-04-06T19:26:27.074Z,39.97
2019-04-06T19:28:58.148Z,30.30
2019-04-06T19:31:28.893Z,31.23
2019-04-06T19:34:00.442Z,21.67
2019-04-06T19:36:31.367Z,22.17
2019-04-06T19:39:02.105Z,25.17
2019-04-06T19:41:32.792Z,18.77
2019-04-06T19:44:03.650Z,17.33
2019-04-06T19:46:34.338Z,17.00
2019-04-06T19:49:13.224Z,19.50
2019-04-06T19:51:44.487Z,19.00
2019-04-06T19:54:15.075Z,21.60
2019-04-06T19:56:54.311Z,17.70
2019-04-06T19:59:25.147Z,16.73
2019-04-06T20:01:56.750Z,16.00
2019-04-06T20:04:28.457Z,18.17
2019-04-06T20:06:59.109Z,18.57
2019-04-06T20:09:29.752Z,18.00
2019-04-06T20:12:05.673Z,15.30
2019-04-06T20:14:33.665Z,15.60
2019-04-06T20:17:04.361Z,15.30
2019-04-06T20:19:35.118Z,15.40
2019-04-06T20:22:05.931Z,16.73
2019-04-06T20:24:36.610Z,16.20
2019-04-06T20:27:08.222Z,15.20
2019-04-06T20:29:51.887Z,14.97
2019-04-06T20:32:35.590Z,14.00
2019-04-06T20:35:09.262Z,12.63
2019-04-06T20:37:40.169Z,12.87
2019-04-06T20:40:11.870Z,13.50
2019-04-06T20:42:43.767Z,12.77
2019-04-06T20:45:14.665Z,13.60
2019-04-06T20:47:45.949Z,13.20
2019-04-06T20:50:22.582Z,14.37
2019-04-06T20:52:53.411Z,15.77
2019-04-06T20:55:24.323Z,15.13
2019-04-06T20:57:55.410Z,14.80
2019-04-06T21:00:26.783Z,17.37
2019-04-06T21:02:58.219Z,13.93
2019-04-06T21:05:29.203Z,13.33
2019-04-06T21:08:00.790Z,13.70
2019-04-06T21:10:32.595Z,13.97
2019-04-06T21:13:03.574Z,14.00
2019-04-06T21:15:35.041Z,13.73
2019-04-06T21:18:06.619Z,14.13
2019-04-06T21:20:38.040Z,13.50
2019-04-06T21:23:08.853Z,13.60
2019-04-06T21:25:40.194Z,13.63
2019-04-06T21:28:10.981Z,13.43
2019-04-06T21:30:42.419Z,13.67
2019-04-06T21:33:18.606Z,12.77
2019-04-06T21:35:49.339Z,13.07
2019-04-06T21:38:20.997Z,13.23
2019-04-06T21:40:54.383Z,13.30
2019-04-06T21:43:25.151Z,13.83
2019-04-06T21:45:55.816Z,14.63
2019-04-06T21:48:27.024Z,14.87
2019-04-06T21:50:58.229Z,14.33
2019-04-06T21:53:29.285Z,16.50
2019-04-06T21:56:03.361Z,17.00
2019-04-06T21:58:33.519Z,18.07
2019-04-06T22:01:04.881Z,17.57
2019-04-06T22:03:36.442Z,20.27
2019-04-06T22:06:07.900Z,19.13
2019-04-06T22:08:39.518Z,24.40
2019-04-06T22:11:11.971Z,21.67
2019-04-06T22:13:43.136Z,17.73
2019-04-06T22:16:14.135Z,16.17
2019-04-06T22:18:45.311Z,14.53
2019-04-06T22:21:16.352Z,14.93
2019-04-06T22:23:47.956Z,13.60
2019-04-06T22:26:19.428Z,13.23
2019-04-06T22:28:50.858Z,14.90
2019-04-06T22:31:22.407Z,13.63
2019-04-06T22:33:53.485Z,15.43
2019-04-06T22:36:25.526Z,14.40
2019-04-06T22:38:57.216Z,15.33
2019-04-06T22:41:28.994Z,15.23
2019-04-06T22:44:00.706Z,13.83
2019-04-06T22:46:32.464Z,14.83
2019-04-06T22:49:03.817Z,15.80
2019-04-06T22:51:35.921Z,14.30
2019-04-06T22:54:06.854Z,14.87
2019-04-06T22:56:38.719Z,16.97
2019-04-06T22:59:09.680Z,16.30
2019-04-06T23:01:42.510Z,15.53
2019-04-06T23:04:28.722Z,14.60
2019-04-06T23:07:08.489Z,17.17
2019-04-06T23:09:39.778Z,16.63
2019-04-06T23:12:11.879Z,16.37
2019-04-06T23:14:43.090Z,17.23
2019-04-06T23:17:14.650Z,13.60
2019-04-06T23:19:45.400Z,13.70
2019-04-06T23:22:16.089Z,14.27
2019-04-06T23:24:46.893Z,13.63
2019-04-06T23:27:17.792Z,13.53
2019-04-06T23:29:48.635Z,12.97
2019-04-06T23:32:20.365Z,13.60
2019-04-06T23:34:58.886Z,13.10
2019-04-06T23:37:24.222Z,13.30
2019-04-06T23:39:55.258Z,14.53
2019-04-06T23:42:26.150Z,13.03
2019-04-06T23:44:56.900Z,12.60
2019-04-06T23:47:27.567Z,13.10
2019-04-06T23:49:58.383Z,13.17
2019-04-06T23:52:29.694Z,14.13
2019-04-06T23:55:01.149Z,15.00
2019-04-06T23:57:32.030Z,13.93
